createdAt,value
2023-05-25T00:01:49.317Z,95.08
2023-05-25T00:04:17.343Z,95.58
2023-05-25T00:06:45.950Z,95.83
2023-05-25T00:09:13.566Z,96.26
2023-05-25T00:11:40.946Z,96.48
2023-05-25T00:14:08.654Z,96.54
2023-05-25T00:16:37.671Z,96.59
2023-05-25T00:19:06.150Z,96.47
2023-05-25T00:21:38.282Z,96.14
2023-05-25T00:24:06.703Z,96.83
2023-05-25T00:26:35.429Z,96.86
2023-05-25T00:29:03.728Z,96.89
2023-05-25T00:31:33.577Z,96.40
2023-05-25T00:34:01.348Z,96.26
2023-05-25T00:36:28.754Z,96.33
2023-05-25T00:38:55.788Z,96.24
2023-05-25T00:41:24.270Z,96.64
2023-05-25T00:43:51.569Z,96.83
2023-05-25T00:46:19.876Z,97.18
2023-05-25T00:48:46.987Z,97.34
2023-05-25T00:51:15.802Z,97.27
2023-05-25T00:53:42.969Z,97.66
2023-05-25T00:56:15.815Z,97.66
2023-05-25T00:58:45.079Z,97.56
2023-05-25T01:01:16.394Z,97.68
2023-05-25T01:03:48.384Z,97.70
2023-05-25T01:06:17.724Z,98.19
2023-05-25T01:08:49.937Z,98.17
2023-05-25T01:11:21.740Z,99.19
2023-05-25T01:13:53.010Z,98.52
2023-05-25T01:16:21.819Z,98.45
2023-05-25T01:18:48.729Z,98.72
2023-05-25T01:21:22.152Z,99.18
2023-05-25T01:24:22.835Z,99.10
2023-05-25T01:26:58.155Z,98.92
2023-05-25T01:29:28.331Z,99.26
2023-05-25T01:31:58.503Z,99.59
2023-05-25T01:34:26.907Z,99.68
2023-05-25T01:36:54.551Z,99.71
2023-05-25T01:39:23.049Z,100.00
2023-05-25T01:41:50.518Z,99.73
2023-05-25T01:44:18.067Z,99.77
2023-05-25T01:46:45.646Z,100.00
2023-05-25T01:49:12.947Z,99.89
2023-05-25T01:52:01.543Z,99.68
2023-05-25T01:54:47.624Z,99.55
2023-05-25T01:57:17.903Z,100.00
2023-05-25T01:59:47.348Z,100.00
2023-05-25T02:02:17.698Z,100.00
2023-05-25T02:04:47.022Z,100.00
2023-05-25T02:07:14.364Z,100.00
2023-05-25T02:09:41.734Z,100.00
2023-05-25T02:12:09.303Z,100.00
2023-05-25T02:14:36.688Z,100.00
2023-05-25T02:17:04.546Z,100.00
2023-05-25T02:19:31.518Z,100.00
2023-05-25T02:21:58.782Z,100.00
2023-05-25T02:24:26.674Z,99.96
2023-05-25T02:26:54.124Z,100.00
2023-05-25T02:29:21.203Z,100.00
2023-05-25T02:31:48.756Z,100.00
2023-05-25T02:34:16.361Z,100.00
2023-05-25T02:36:45.153Z,100.00
2023-05-25T02:39:12.351Z,100.00
2023-05-25T02:41:40.239Z,100.00
2023-05-25T02:44:08.052Z,100.00
2023-05-25T02:46:35.701Z,100.00
2023-05-25T02:49:02.943Z,100.00
2023-05-25T02:51:30.366Z,100.00
2023-05-25T02:53:59.884Z,100.00
2023-05-25T02:56:27.693Z,100.00
2023-05-25T02:58:56.243Z,100.00
2023-05-25T03:01:31.866Z,100.00
2023-05-25T03:03:58.981Z,100.00
2023-05-25T03:06:27.573Z,99.84
2023-05-25T03:09:05.085Z,99.93
2023-05-25T03:11:33.130Z,99.69
2023-05-25T03:14:01.221Z,100.00
2023-05-25T03:16:30.204Z,100.00
2023-05-25T03:18:58.190Z,100.00
2023-05-25T03:21:25.812Z,100.00
2023-05-25T03:23:53.371Z,99.32
2023-05-25T03:26:20.752Z,99.63
2023-05-25T03:28:49.381Z,99.73
2023-05-25T03:31:16.614Z,99.79
2023-05-25T03:33:45.145Z,100.00
2023-05-25T03:36:13.753Z,99.57
2023-05-25T03:38:42.729Z,100.00
2023-05-25T03:41:11.472Z,100.00
2023-05-25T03:43:38.724Z,100.00
2023-05-25T03:46:08.120Z,99.99
2023-05-25T03:48:35.826Z,100.00
2023-05-25T03:51:05.063Z,99.90
2023-05-25T03:53:32.230Z,99.71
2023-05-25T03:55:59.782Z,100.00
2023-05-25T03:58:26.892Z,100.00
2023-05-25T04:00:55.053Z,99.27
2023-05-25T04:03:22.589Z,99.48
2023-05-25T04:05:50.439Z,100.00
2023-05-25T04:08:20.730Z,99.67
2023-05-25T04:10:48.150Z,100.00
2023-05-25T04:13:15.678Z,99.80
2023-05-25T04:15:43.637Z,99.86
2023-05-25T04:18:31.567Z,99.74
2023-05-25T04:21:00.180Z,99.77
2023-05-25T04:23:28.386Z,99.00
2023-05-25T04:25:58.191Z,98.71
2023-05-25T04:28:25.165Z,98.00
2023-05-25T04:30:58.496Z,97.79
2023-05-25T04:33:45.129Z,97.74
2023-05-25T04:36:26.185Z,98.09
2023-05-25T04:38:55.412Z,97.54
2023-05-25T04:41:25.851Z,97.46
2023-05-25T04:46:37.724Z,97.59
2023-05-25T04:49:06.081Z,98.45
2023-05-25T04:51:33.590Z,98.94
2023-05-25T04:54:01.324Z,99.20
2023-05-25T04:56:29.090Z,98.88
2023-05-25T04:58:57.807Z,98.49
2023-05-25T05:01:26.430Z,98.46
2023-05-25T05:03:56.647Z,98.03
2023-05-25T05:06:25.954Z,99.05
2023-05-25T05:08:53.163Z,98.57
2023-05-25T05:11:20.902Z,98.00
2023-05-25T05:13:49.025Z,98.52
2023-05-25T05:16:16.249Z,99.51
2023-05-25T05:18:43.526Z,99.83
2023-05-25T05:21:10.851Z,99.69
2023-05-25T05:23:38.342Z,98.89
2023-05-25T05:26:07.382Z,98.94
2023-05-25T05:28:34.491Z,98.11
2023-05-25T05:31:01.888Z,97.32
2023-05-25T05:33:29.326Z,97.81
2023-05-25T05:35:57.632Z,97.79
2023-05-25T05:38:24.842Z,97.38
2023-05-25T05:40:52.222Z,97.08
2023-05-25T05:43:23.119Z,96.51
2023-05-25T05:45:51.119Z,96.65
2023-05-25T05:48:19.029Z,97.14
2023-05-25T05:50:46.797Z,97.13
2023-05-25T05:53:14.546Z,97.13
2023-05-25T05:55:43.238Z,97.13
2023-05-25T05:58:10.390Z,96.89
2023-05-25T06:00:38.178Z,97.22
2023-05-25T06:03:07.176Z,97.54
2023-05-25T06:05:34.856Z,96.56
2023-05-25T06:08:05.670Z,96.59
2023-05-25T06:10:35.655Z,96.67
2023-05-25T06:13:02.662Z,96.90
2023-05-25T06:15:30.809Z,95.94
2023-05-25T06:18:00.650Z,94.97
2023-05-25T06:20:28.081Z,94.77
2023-05-25T06:22:55.576Z,95.49
2023-05-25T06:25:24.635Z,94.40
2023-05-25T06:27:52.039Z,94.85
2023-05-25T06:30:19.513Z,94.81
2023-05-25T06:32:48.631Z,94.07
2023-05-25T06:35:20.056Z,94.14
2023-05-25T06:37:51.103Z,94.87
2023-05-25T06:40:20.165Z,94.09
2023-05-25T06:42:47.297Z,94.28
2023-05-25T06:45:43.917Z,94.49
2023-05-25T06:48:11.680Z,94.63
2023-05-25T06:50:40.336Z,94.60
2023-05-25T06:53:07.820Z,93.88
2023-05-25T06:55:35.191Z,93.61
2023-05-25T06:58:02.189Z,93.47
2023-05-25T07:00:29.772Z,93.14
2023-05-25T07:02:56.983Z,92.30
2023-05-25T07:05:24.645Z,92.55
2023-05-25T07:07:51.720Z,92.34
2023-05-25T07:10:20.576Z,92.01
2023-05-25T07:12:47.654Z,91.58
2023-05-25T07:15:16.438Z,92.28
2023-05-25T07:17:43.547Z,92.05
2023-05-25T07:20:13.227Z,91.57
2023-05-25T07:22:40.376Z,91.29
2023-05-25T07:25:08.711Z,90.49
2023-05-25T07:27:36.272Z,91.36
2023-05-25T07:30:04.378Z,91.08
2023-05-25T07:32:32.298Z,91.60
2023-05-25T07:34:59.620Z,90.94
2023-05-25T07:37:26.922Z,90.57
2023-05-25T07:39:54.594Z,89.99
2023-05-25T07:42:21.981Z,90.00
2023-05-25T07:44:49.529Z,89.73
2023-05-25T07:47:16.836Z,90.62
2023-05-25T07:49:44.246Z,90.11
2023-05-25T07:52:12.126Z,89.81
2023-05-25T07:54:40.480Z,89.97
2023-05-25T07:57:08.285Z,90.03
2023-05-25T07:59:35.642Z,88.71
2023-05-25T08:02:03.928Z,87.89
2023-05-25T08:04:32.080Z,87.33
2023-05-25T08:06:59.222Z,87.54
2023-05-25T08:09:27.066Z,86.90
2023-05-25T08:12:03.867Z,85.81
2023-05-25T08:14:40.642Z,85.47
2023-05-25T08:17:07.747Z,87.24
2023-05-25T08:19:35.125Z,86.79
2023-05-25T08:22:02.967Z,85.13
2023-05-25T08:24:30.133Z,86.19
2023-05-25T08:26:57.569Z,85.30
2023-05-25T08:29:24.882Z,84.48
2023-05-25T08:31:52.093Z,83.31
2023-05-25T08:34:19.471Z,82.89
2023-05-25T08:36:46.606Z,81.11
2023-05-25T08:39:14.339Z,81.28
2023-05-25T08:41:43.964Z,80.92
2023-05-25T08:44:14.799Z,81.60
2023-05-25T08:46:42.235Z,82.28
2023-05-25T08:49:12.406Z,82.19
2023-05-25T08:51:48.194Z,80.49
2023-05-25T08:54:18.632Z,80.79
2023-05-25T08:56:49.612Z,80.94
2023-05-25T08:59:42.865Z,79.32
2023-05-25T09:02:39.407Z,80.07
2023-05-25T09:05:08.677Z,81.61
2023-05-25T09:07:36.069Z,81.30
2023-05-25T09:10:04.971Z,80.15
2023-05-25T09:12:32.457Z,80.27
2023-05-25T09:14:59.995Z,78.88
2023-05-25T09:17:27.553Z,79.65
2023-05-25T09:19:55.127Z,78.64
2023-05-25T09:22:22.531Z,79.37
2023-05-25T09:24:50.008Z,77.17
2023-05-25T09:27:19.360Z,77.16
2023-05-25T09:29:48.384Z,77.34
2023-05-25T09:32:16.931Z,78.20
2023-05-25T09:34:45.713Z,79.21
2023-05-25T09:37:15.250Z,80.26
2023-05-25T09:39:43.849Z,80.31
2023-05-25T09:42:12.142Z,79.22
2023-05-25T09:44:42.651Z,78.34
2023-05-25T09:47:10.190Z,78.29
2023-05-25T09:49:38.746Z,78.01
2023-05-25T09:52:06.670Z,78.03
2023-05-25T09:54:34.411Z,78.42
2023-05-25T09:57:04.105Z,79.20
2023-05-25T09:59:32.608Z,78.54
2023-05-25T10:02:00.127Z,79.18
2023-05-25T10:04:27.695Z,79.04
2023-05-25T10:06:57.239Z,78.90
2023-05-25T10:09:28.799Z,78.70
2023-05-25T10:11:57.536Z,77.79
2023-05-25T10:14:30.293Z,78.73
2023-05-25T10:16:59.698Z,78.52
2023-05-25T10:19:37.035Z,78.18
2023-05-25T10:22:15.615Z,78.45
2023-05-25T10:25:00.878Z,78.45
2023-05-25T10:27:34.334Z,78.16
2023-05-25T10:30:02.229Z,77.51
2023-05-25T10:32:30.181Z,77.16
2023-05-25T10:34:57.537Z,76.14
2023-05-25T10:37:28.706Z,76.72
2023-05-25T10:39:58.330Z,75.84
2023-05-25T10:42:27.780Z,76.27
2023-05-25T10:44:56.665Z,76.87
2023-05-25T10:47:28.879Z,78.09
2023-05-25T10:49:58.372Z,77.51
2023-05-25T10:52:30.996Z,76.97
2023-05-25T10:55:04.386Z,76.76
2023-05-25T10:57:31.975Z,76.86
2023-05-25T11:00:08.908Z,75.37
2023-05-25T11:02:55.809Z,74.98
2023-05-25T11:05:26.575Z,73.27
2023-05-25T11:07:54.893Z,71.98
2023-05-25T11:10:50.208Z,71.42
2023-05-25T11:13:40.934Z,70.27
2023-05-25T11:16:15.339Z,68.06
2023-05-25T11:18:43.872Z,69.19
2023-05-25T11:21:44.496Z,68.07
2023-05-25T11:24:16.536Z,67.03
2023-05-25T11:26:56.032Z,68.11
2023-05-25T11:29:25.474Z,68.44
2023-05-25T11:31:55.286Z,67.80
2023-05-25T11:34:26.282Z,67.32
2023-05-25T11:36:58.651Z,67.41
2023-05-25T11:39:26.185Z,67.23
2023-05-25T11:42:02.148Z,65.37
2023-05-25T11:44:31.081Z,65.59
2023-05-25T11:47:02.024Z,62.91
2023-05-25T11:49:29.432Z,63.08
2023-05-25T11:51:57.966Z,64.46
2023-05-25T11:54:29.347Z,61.05
2023-05-25T11:56:59.965Z,62.07
2023-05-25T11:59:29.613Z,63.36
2023-05-25T12:02:01.556Z,62.14
2023-05-25T12:04:30.151Z,61.89
2023-05-25T12:07:05.061Z,62.38
2023-05-25T12:09:32.920Z,62.53
2023-05-25T12:12:01.545Z,62.70
2023-05-25T12:14:28.821Z,62.96
2023-05-25T12:16:56.968Z,60.79
2023-05-25T12:19:24.160Z,61.38
2023-05-25T12:21:52.581Z,60.94
2023-05-25T12:24:19.822Z,62.32
2023-05-25T12:26:48.337Z,62.79
2023-05-25T12:29:15.356Z,62.32
2023-05-25T12:31:43.107Z,61.08
2023-05-25T12:34:12.869Z,60.87
2023-05-25T12:36:48.677Z,60.32
2023-05-25T12:39:17.142Z,59.79
2023-05-25T12:41:45.569Z,60.32
2023-05-25T12:44:37.106Z,60.06
2023-05-25T12:47:11.913Z,60.88
2023-05-25T12:49:40.762Z,60.84
2023-05-25T12:52:09.272Z,59.64
2023-05-25T12:54:44.832Z,58.99
2023-05-25T12:57:17.400Z,58.99
2023-05-25T12:59:46.851Z,60.08
2023-05-25T13:02:15.032Z,59.03
2023-05-25T13:04:42.590Z,58.31
2023-05-25T13:07:10.712Z,58.57
2023-05-25T13:09:38.788Z,59.95
2023-05-25T13:12:07.091Z,59.95
2023-05-25T13:14:34.072Z,60.29
2023-05-25T13:17:01.646Z,60.16
2023-05-25T13:19:29.389Z,60.62
2023-05-25T13:21:56.859Z,60.97
2023-05-25T13:24:24.723Z,61.98
2023-05-25T13:26:52.405Z,60.82
2023-05-25T13:29:20.015Z,61.64
2023-05-25T13:31:48.439Z,62.28
2023-05-25T13:34:15.852Z,61.75
2023-05-25T13:36:43.330Z,60.67
2023-05-25T13:39:13.528Z,58.68
2023-05-25T13:41:41.985Z,59.95
2023-05-25T13:44:11.424Z,59.29
2023-05-25T13:46:39.055Z,59.66
2023-05-25T13:49:06.550Z,59.30
2023-05-25T13:51:35.810Z,58.23
2023-05-25T13:54:03.226Z,57.38
2023-05-25T13:56:31.279Z,58.06
2023-05-25T13:58:58.585Z,57.97
2023-05-25T14:01:30.669Z,58.69
2023-05-25T14:03:59.978Z,59.58
2023-05-25T14:06:28.953Z,59.27
2023-05-25T14:08:55.861Z,59.33
2023-05-25T14:11:28.606Z,58.52
2023-05-25T14:13:57.381Z,59.03
2023-05-25T14:16:25.407Z,58.69
2023-05-25T14:18:52.999Z,56.55
2023-05-25T14:21:20.794Z,54.99
2023-05-25T14:23:48.045Z,55.45
2023-05-25T14:26:16.101Z,54.68
2023-05-25T14:28:43.405Z,53.78
2023-05-25T14:31:12.404Z,53.78
2023-05-25T14:33:42.870Z,54.80
2023-05-25T14:36:10.645Z,56.02
2023-05-25T14:38:38.192Z,56.75
2023-05-25T14:41:05.546Z,57.69
2023-05-25T14:43:33.272Z,58.16
2023-05-25T14:46:00.806Z,58.86
2023-05-25T14:48:27.755Z,58.41
2023-05-25T14:50:55.262Z,59.06
2023-05-25T14:53:22.201Z,60.17
2023-05-25T14:55:49.603Z,59.38
2023-05-25T14:58:16.863Z,57.35
2023-05-25T15:00:44.226Z,53.03
2023-05-25T15:03:11.578Z,49.69
2023-05-25T15:05:39.567Z,50.35
2023-05-25T15:08:07.079Z,52.28
2023-05-25T15:10:34.430Z,53.17
2023-05-25T15:13:01.601Z,55.15
2023-05-25T15:15:30.888Z,55.64
2023-05-25T15:17:57.906Z,56.19
2023-05-25T15:20:25.533Z,54.72
2023-05-25T15:22:54.186Z,54.63
2023-05-25T15:25:34.905Z,53.99
2023-05-25T15:28:03.586Z,50.86
2023-05-25T15:30:33.566Z,48.37
2023-05-25T15:33:02.661Z,45.63
2023-05-25T15:35:32.867Z,42.90
2023-05-25T15:38:01.424Z,40.12
2023-05-25T15:40:29.072Z,40.35
2023-05-25T15:42:56.407Z,42.58
2023-05-25T15:45:25.203Z,45.21
2023-05-25T15:47:52.292Z,46.76
2023-05-25T15:50:19.785Z,46.81
2023-05-25T15:52:47.332Z,45.98
2023-05-25T15:55:14.926Z,42.64
2023-05-25T15:57:42.379Z,42.70
2023-05-25T16:00:10.602Z,42.30
2023-05-25T16:02:37.843Z,42.93
2023-05-25T16:05:07.208Z,42.76
2023-05-25T16:07:34.225Z,42.59
2023-05-25T16:10:01.643Z,43.22
2023-05-25T16:12:28.975Z,43.83
2023-05-25T16:14:56.355Z,43.35
2023-05-25T16:17:23.345Z,44.93
2023-05-25T16:19:50.535Z,46.30
2023-05-25T16:22:17.528Z,46.23
2023-05-25T16:24:46.162Z,48.16
2023-05-25T16:27:13.092Z,49.64
2023-05-25T16:29:41.307Z,50.17
2023-05-25T16:32:08.431Z,50.41
2023-05-25T16:34:36.229Z,50.85
2023-05-25T16:37:03.439Z,50.47
2023-05-25T16:39:30.659Z,51.36
2023-05-25T16:41:58.568Z,51.95
2023-05-25T16:44:26.466Z,52.34
2023-05-25T16:46:53.405Z,52.63
2023-05-25T16:49:21.190Z,53.12
2023-05-25T16:51:48.198Z,53.79
2023-05-25T16:54:16.743Z,53.82
2023-05-25T16:56:43.818Z,54.45
2023-05-25T16:59:11.096Z,55.50
2023-05-25T17:01:38.056Z,55.75
2023-05-25T17:04:06.474Z,55.56
2023-05-25T17:06:34.139Z,55.40
2023-05-25T17:09:01.777Z,56.03
2023-05-25T17:11:29.410Z,56.32
2023-05-25T17:13:57.629Z,56.89
2023-05-25T17:16:24.738Z,56.94
2023-05-25T17:18:52.010Z,57.05
2023-05-25T17:21:19.271Z,58.01
2023-05-25T17:23:47.394Z,57.54
2023-05-25T17:26:14.330Z,57.98
2023-05-25T17:28:41.968Z,57.95
2023-05-25T17:31:09.689Z,58.51
2023-05-25T17:33:39.032Z,58.93
2023-05-25T17:36:06.834Z,58.82
2023-05-25T17:38:37.105Z,58.34
2023-05-25T17:41:05.095Z,58.55
2023-05-25T17:43:32.430Z,59.35
2023-05-25T17:46:00.022Z,59.49
2023-05-25T17:48:27.748Z,59.82
2023-05-25T17:50:56.687Z,60.33
2023-05-25T17:53:24.212Z,60.56
2023-05-25T17:55:51.502Z,61.51
2023-05-25T17:58:18.950Z,61.53
2023-05-25T18:00:48.206Z,61.85
2023-05-25T18:03:19.091Z,62.27
2023-05-25T18:05:46.917Z,62.29
2023-05-25T18:08:14.736Z,63.24
2023-05-25T18:10:42.016Z,62.91
2023-05-25T18:13:09.367Z,62.95
2023-05-25T18:15:36.501Z,63.76
2023-05-25T18:18:05.773Z,63.53
2023-05-25T18:20:33.275Z,64.13
2023-05-25T18:23:00.942Z,63.97
2023-05-25T18:25:28.340Z,64.05
2023-05-25T18:27:56.059Z,64.35
2023-05-25T18:30:23.497Z,64.77
2023-05-25T18:32:51.900Z,65.16
2023-05-25T18:35:19.095Z,65.77
2023-05-25T18:37:46.424Z,65.34
2023-05-25T18:40:13.986Z,65.93
2023-05-25T18:42:41.554Z,66.02
2023-05-25T18:45:09.157Z,66.28
2023-05-25T18:47:36.675Z,66.80
2023-05-25T18:50:04.648Z,66.67
2023-05-25T18:52:32.339Z,67.07
2023-05-25T18:54:59.461Z,66.84
2023-05-25T18:57:28.973Z,66.95
2023-05-25T18:59:56.187Z,67.37
2023-05-25T19:02:24.398Z,67.43
2023-05-25T19:04:51.471Z,67.25
2023-05-25T19:07:19.014Z,67.09
2023-05-25T19:09:48.356Z,67.22
2023-05-25T19:12:15.976Z,66.96
2023-05-25T19:14:43.424Z,67.11
2023-05-25T19:17:10.930Z,67.36
2023-05-25T19:19:38.549Z,67.25
2023-05-25T19:22:06.860Z,67.47
2023-05-25T19:24:33.889Z,67.67
2023-05-25T19:27:01.923Z,67.38
2023-05-25T19:29:28.935Z,67.62
2023-05-25T19:31:56.692Z,67.65
2023-05-25T19:34:24.319Z,66.93
2023-05-25T19:37:00.080Z,66.63
2023-05-25T19:39:32.017Z,67.55
2023-05-25T19:41:59.964Z,67.48
2023-05-25T19:44:27.371Z,67.43
2023-05-25T19:46:54.769Z,67.41
2023-05-25T19:49:22.165Z,67.19
2023-05-25T19:51:49.616Z,67.87
2023-05-25T19:54:16.838Z,68.23
2023-05-25T19:56:45.083Z,68.19
2023-05-25T19:59:12.601Z,68.18
2023-05-25T20:01:39.998Z,68.55
2023-05-25T20:04:07.421Z,68.87
2023-05-25T20:06:34.986Z,69.19
2023-05-25T20:09:02.178Z,69.27
2023-05-25T20:11:29.633Z,69.92
2023-05-25T20:13:56.667Z,69.80
2023-05-25T20:16:26.049Z,70.06
2023-05-25T20:18:53.166Z,70.45
2023-05-25T20:21:21.241Z,70.68
2023-05-25T20:23:48.152Z,70.91
2023-05-25T20:26:15.644Z,71.28
2023-05-25T20:28:42.782Z,71.26
2023-05-25T20:31:10.134Z,72.23
2023-05-25T20:33:37.334Z,72.40
2023-05-25T20:36:04.701Z,72.53
2023-05-25T20:38:32.201Z,72.81
2023-05-25T20:40:59.429Z,73.54
2023-05-25T20:43:26.522Z,73.72
2023-05-25T20:45:53.704Z,73.78
2023-05-25T20:48:21.184Z,74.00
2023-05-25T20:50:48.555Z,74.52
2023-05-25T20:53:15.913Z,74.93
2023-05-25T20:55:43.270Z,74.90
2023-05-25T20:58:10.908Z,75.45
2023-05-25T21:00:38.344Z,75.33
2023-05-25T21:03:08.456Z,75.84
2023-05-25T21:05:38.137Z,75.95
2023-05-25T21:08:06.076Z,76.02
2023-05-25T21:10:33.371Z,76.29
2023-05-25T21:13:00.734Z,76.52
2023-05-25T21:15:28.296Z,76.86
2023-05-25T21:17:55.861Z,76.67
2023-05-25T21:20:23.174Z,77.21
2023-05-25T21:22:50.250Z,77.24
2023-05-25T21:25:17.608Z,77.34
2023-05-25T21:27:44.478Z,77.54
2023-05-25T21:30:12.281Z,77.46
2023-05-25T21:32:39.756Z,77.29
2023-05-25T21:35:07.505Z,77.39
2023-05-25T21:37:34.879Z,76.81
2023-05-25T21:40:02.844Z,76.83
2023-05-25T21:42:29.942Z,76.59
2023-05-25T21:44:57.240Z,76.72
2023-05-25T21:47:25.252Z,76.61
2023-05-25T21:49:53.141Z,76.80
2023-05-25T21:52:20.109Z,76.92
2023-05-25T21:54:47.620Z,76.86
2023-05-25T21:57:16.554Z,77.10
2023-05-25T21:59:44.074Z,77.37
2023-05-25T22:02:11.477Z,78.09
2023-05-25T22:04:38.984Z,78.47
2023-05-25T22:07:05.998Z,78.43
2023-05-25T22:09:33.616Z,78.97
2023-05-25T22:12:00.600Z,79.43
2023-05-25T22:14:28.346Z,79.66
2023-05-25T22:16:55.514Z,79.51
2023-05-25T22:19:23.013Z,79.67
2023-05-25T22:21:50.060Z,79.77
2023-05-25T22:24:17.550Z,79.58
2023-05-25T22:26:44.604Z,79.48
2023-05-25T22:29:12.307Z,79.57
2023-05-25T22:31:39.503Z,79.90
2023-05-25T22:34:07.263Z,80.32
2023-05-25T22:36:34.524Z,80.66
2023-05-25T22:39:02.291Z,81.00
2023-05-25T22:41:29.222Z,81.08
2023-05-25T22:43:56.904Z,81.28
2023-05-25T22:46:23.940Z,81.24
2023-05-25T22:48:51.736Z,80.78
2023-05-25T22:51:18.736Z,79.65
2023-05-25T22:53:46.212Z,79.79
2023-05-25T22:56:13.152Z,79.84
2023-05-25T22:58:40.959Z,79.60
2023-05-25T23:01:08.077Z,79.51
2023-05-25T23:03:35.651Z,79.62
2023-05-25T23:06:02.677Z,79.66
2023-05-25T23:08:30.503Z,79.62
2023-05-25T23:10:57.629Z,80.05
2023-05-25T23:13:25.071Z,80.11
2023-05-25T23:15:52.589Z,80.38
2023-05-25T23:18:19.873Z,80.80
2023-05-25T23:20:46.908Z,81.50
2023-05-25T23:23:14.777Z,81.61
2023-05-25T23:25:41.735Z,81.90
2023-05-25T23:28:09.242Z,82.14
2023-05-25T23:30:36.342Z,82.14
2023-05-25T23:33:04.235Z,81.67
2023-05-25T23:35:31.544Z,81.61
2023-05-25T23:38:01.587Z,81.66
2023-05-25T23:40:29.335Z,81.05
2023-05-25T23:42:56.787Z,79.72
2023-05-25T23:45:24.080Z,79.54
2023-05-25T23:47:51.440Z,79.23
2023-05-25T23:50:18.865Z,78.52
2023-05-25T23:52:46.450Z,78.48
2023-05-25T23:55:14.168Z,78.45
2023-05-25T23:57:41.493Z,78.69
